Time;durP1;ratioP1;P1;durP2;ratioP2;P2;SDS_P1;SDS_P2;PMS_P1;PMS_P2;Temp;Humidity;BMP_temperature;BMP_pressure;BME280_temperature;BME280_humidity;BME280_pressure;Samples;Min_cycle;Max_cycle;Signal;HPM_P1;HPM_P2
2023/06/22 00:01:59;;;;;;;17.23;15.40;;;19.40;99.90;;;;;;5034158;28;20128;-77
2023/06/22 00:04:25;;;;;;;20.33;16.03;;;19.40;99.90;;;;;;5016945;28;20050;-77
2023/06/22 00:06:51;;;;;;;24.77;18.70;;;19.40;99.90;;;;;;5033311;28;20057;-77
2023/06/22 00:09:17;;;;;;;20.27;16.60;;;19.40;99.90;;;;;;5034100;28;20121;-77
2023/06/22 00:11:42;;;;;;;21.07;17.77;;;19.30;99.90;;;;;;5032754;28;20055;-77
2023/06/22 00:14:08;;;;;;;24.00;18.00;;;19.30;99.90;;;;;;5033984;28;20383;-78
2023/06/22 00:16:34;;;;;;;21.30;17.60;;;19.30;99.90;;;;;;5033190;28;20057;-77
2023/06/22 00:19:01;;;;;;;19.80;17.40;;;19.30;99.90;;;;;;5034136;28;20400;-78
2023/06/22 00:21:27;;;;;;;20.43;16.87;;;19.30;99.90;;;;;;5034055;28;20527;-77
2023/06/22 00:23:53;;;;;;;20.60;18.20;;;19.30;99.90;;;;;;5033923;28;20042;-79
2023/06/22 00:26:20;;;;;;;20.77;18.17;;;19.20;99.90;;;;;;5034030;28;20092;-77
2023/06/22 00:28:46;;;;;;;23.90;18.20;;;19.20;99.90;;;;;;5016562;28;20049;-79
2023/06/22 00:31:12;;;;;;;22.67;19.37;;;19.10;99.90;;;;;;5032913;28;20057;-85
2023/06/22 00:33:38;;;;;;;22.30;18.70;;;19.10;99.90;;;;;;5033257;28;20112;-85
2023/06/22 00:36:04;;;;;;;20.83;18.60;;;19.10;99.90;;;;;;5032776;28;20397;-84
2023/06/22 00:38:31;;;;;;;22.50;20.23;;;19.00;99.90;;;;;;5032866;28;20172;-85
2023/06/22 00:40:56;;;;;;;22.20;19.10;;;19.00;99.90;;;;;;5032651;28;20494;-83
2023/06/22 00:43:22;;;;;;;22.47;20.07;;;19.00;99.90;;;;;;5032543;28;20163;-80
2023/06/22 00:45:48;;;;;;;22.67;20.27;;;19.00;99.90;;;;;;5016209;28;20055;-80
2023/06/22 00:48:14;;;;;;;23.17;20.67;;;18.90;99.90;;;;;;5015997;28;20037;-79
2023/06/22 00:50:40;;;;;;;21.27;19.03;;;18.90;99.90;;;;;;5033884;28;20056;-82
2023/06/22 00:53:08;;;;;;;22.43;19.97;;;18.90;99.90;;;;;;5033405;28;20053;-79
2023/06/22 00:55:38;;;;;;;22.10;19.80;;;18.90;99.90;;;;;;5033509;28;20111;-80
2023/06/22 00:58:09;;;;;;;24.47;20.07;;;18.80;99.90;;;;;;5015413;28;20045;-80
2023/06/22 01:00:36;;;;;;;22.73;20.00;;;18.80;99.90;;;;;;5032532;28;20058;-83
2023/06/22 01:03:03;;;;;;;21.97;19.70;;;18.80;99.90;;;;;;5032000;28;20085;-80
2023/06/22 01:05:31;;;;;;;21.93;18.97;;;18.70;99.90;;;;;;4983568;28;20084;-80
2023/06/22 01:08:10;;;;;;;23.67;20.93;;;18.70;99.90;;;;;;5032115;28;20057;-80
2023/06/22 01:10:41;;;;;;;21.67;19.37;;;18.70;99.90;;;;;;5032254;28;20041;-80
2023/06/22 01:13:14;;;;;;;21.30;19.00;;;18.70;99.90;;;;;;5033070;28;20088;-80
2023/06/22 01:15:46;;;;;;;23.50;19.87;;;18.70;99.90;;;;;;5032517;28;20064;-79
2023/06/22 01:18:14;;;;;;;22.33;19.73;;;18.60;99.90;;;;;;5032868;28;20042;-80
2023/06/22 01:20:41;;;;;;;22.80;19.33;;;18.60;99.90;;;;;;5032995;28;20037;-80
2023/06/22 01:23:28;;;;;;;23.17;18.83;;;18.60;99.90;;;;;;5031328;28;20049;-79
2023/06/22 01:26:27;;;;;;;21.40;19.10;;;18.60;99.90;;;;;;5032134;28;20496;-80
2023/06/22 01:28:58;;;;;;;22.23;19.57;;;18.70;99.90;;;;;;5032137;28;20136;-80
2023/06/22 01:31:29;;;;;;;22.50;19.30;;;18.70;99.90;;;;;;5015680;28;20053;-79
2023/06/22 01:33:59;;;;;;;21.50;19.20;;;18.70;99.90;;;;;;5033660;28;20045;-85
2023/06/22 01:36:26;;;;;;;20.53;18.43;;;18.70;99.90;;;;;;5033989;28;20089;-78
2023/06/22 01:38:53;;;;;;;21.97;17.83;;;18.70;99.90;;;;;;5031771;28;20081;-78
2023/06/22 01:41:24;;;;;;;20.70;18.60;;;18.60;99.90;;;;;;5031568;28;20087;-77
2023/06/22 01:43:51;;;;;;;19.60;17.57;;;18.70;99.90;;;;;;5031553;28;20045;-78
2023/06/22 01:46:19;;;;;;;21.33;19.00;;;18.60;99.90;;;;;;5031349;28;20478;-78
2023/06/22 01:48:46;;;;;;;24.97;20.20;;;18.70;99.90;;;;;;5031721;28;20045;-78
2023/06/22 01:51:12;;;;;;;22.23;18.00;;;18.70;99.90;;;;;;5031429;28;20056;-78
2023/06/22 01:53:37;;;;;;;21.03;18.73;;;18.70;99.90;;;;;;5032068;28;20049;-79
2023/06/22 01:56:04;;;;;;;20.87;18.47;;;18.60;99.90;;;;;;5014860;28;20052;-78
2023/06/22 01:58:31;;;;;;;20.10;18.00;;;18.60;99.90;;;;;;5032523;28;20080;-78
2023/06/22 02:01:09;;;;;;;22.23;18.93;;;18.60;99.90;;;;;;5031339;28;20108;-77
2023/06/22 02:03:48;;;;;;;20.57;18.37;;;18.60;99.90;;;;;;5032918;28;20413;-78
2023/06/22 02:06:19;;;;;;;22.73;19.60;;;18.60;99.90;;;;;;5032288;28;20045;-78
2023/06/22 02:08:53;;;;;;;21.67;18.60;;;18.60;99.90;;;;;;5032436;28;20132;-78
2023/06/22 02:11:20;;;;;;;21.73;19.47;;;18.60;99.90;;;;;;5031253;28;20050;-78
2023/06/22 02:13:47;;;;;;;22.40;17.70;;;18.60;99.90;;;;;;5032441;28;20532;-78
2023/06/22 02:16:16;;;;;;;24.10;19.70;;;18.60;99.90;;;;;;5031217;28;20049;-78
2023/06/22 02:18:51;;;;;;;23.27;19.37;;;18.60;99.90;;;;;;5031126;28;20493;-78
2023/06/22 02:21:18;;;;;;;23.07;19.13;;;18.50;99.90;;;;;;5014562;28;20175;-78
2023/06/22 02:23:43;;;;;;;24.10;20.40;;;18.50;99.90;;;;;;5014849;28;20552;-78
2023/06/22 02:26:10;;;;;;;24.83;22.23;;;18.40;99.90;;;;;;5031092;28;20180;-78
2023/06/22 02:28:35;;;;;;;23.10;20.60;;;18.40;99.90;;;;;;4998794;28;20429;-78
2023/06/22 02:31:01;;;;;;;23.17;20.77;;;18.40;99.90;;;;;;5031320;28;20048;-81
2023/06/22 02:33:27;;;;;;;21.70;19.13;;;18.30;99.90;;;;;;5015936;28;20049;-78
2023/06/22 02:35:53;;;;;;;25.03;22.30;;;18.40;99.90;;;;;;5002376;28;20053;-78
2023/06/22 02:38:19;;;;;;;23.00;20.80;;;18.40;99.90;;;;;;5034445;28;20081;-78
2023/06/22 02:40:46;;;;;;;23.13;20.73;;;18.40;99.90;;;;;;4986428;28;20470;-77
2023/06/22 02:43:11;;;;;;;25.17;22.37;;;18.40;99.90;;;;;;5018436;28;20057;-77
2023/06/22 02:45:37;;;;;;;24.40;21.90;;;18.30;99.90;;;;;;5035077;28;20370;-78
2023/06/22 02:48:03;;;;;;;23.80;21.20;;;18.30;99.90;;;;;;5034672;28;20045;-78
2023/06/22 02:50:29;;;;;;;22.97;20.43;;;18.20;99.90;;;;;;5034899;28;20053;-78
2023/06/22 02:52:55;;;;;;;23.70;21.40;;;18.10;99.90;;;;;;5035701;28;20084;-78
2023/06/22 02:55:21;;;;;;;22.50;20.20;;;18.10;99.90;;;;;;5018223;28;20084;-78
2023/06/22 02:57:47;;;;;;;24.17;21.77;;;18.20;99.90;;;;;;5034568;28;20103;-77
2023/06/22 03:00:17;;;;;;;24.23;21.83;;;18.10;99.90;;;;;;5034389;28;20507;-77
2023/06/22 03:02:47;;;;;;;23.60;21.03;;;18.10;99.90;;;;;;5034417;28;20064;-77
2023/06/22 03:05:14;;;;;;;25.97;23.37;;;18.10;99.90;;;;;;5034664;28;20123;-78
2023/06/22 03:07:41;;;;;;;24.20;21.77;;;18.00;99.90;;;;;;5035637;28;20049;-77
2023/06/22 03:10:12;;;;;;;25.13;22.47;;;18.00;99.90;;;;;;5017962;28;20510;-78
2023/06/22 03:12:38;;;;;;;24.17;21.53;;;18.10;99.90;;;;;;5034717;28;20049;-78
2023/06/22 03:15:09;;;;;;;22.20;19.90;;;18.10;99.90;;;;;;5034472;28;20049;-78
2023/06/22 03:17:35;;;;;;;23.00;20.53;;;18.20;99.90;;;;;;5035451;28;20081;-78
2023/06/22 03:20:09;;;;;;;22.90;20.70;;;18.10;99.90;;;;;;5035265;28;20057;-78
2023/06/22 03:22:42;;;;;;;23.63;21.33;;;18.10;99.90;;;;;;5035028;28;20125;-78
2023/06/22 03:25:13;;;;;;;25.03;22.53;;;18.20;99.90;;;;;;5036060;28;20436;-84
2023/06/22 03:27:43;;;;;;;23.63;21.23;;;18.20;99.90;;;;;;5018382;28;20037;-78
2023/06/22 03:30:11;;;;;;;23.23;20.93;;;18.20;99.90;;;;;;5033999;28;20059;-80
2023/06/22 03:32:37;;;;;;;23.13;20.83;;;18.20;99.90;;;;;;5035102;28;20056;-78
2023/06/22 03:35:03;;;;;;;22.87;20.43;;;18.20;99.90;;;;;;5034029;28;20045;-78
2023/06/22 03:37:29;;;;;;;23.07;20.67;;;18.10;99.90;;;;;;5033643;28;20081;-78
2023/06/22 03:39:55;;;;;;;21.57;19.47;;;18.20;99.90;;;;;;5035022;28;20052;-77
2023/06/22 03:42:21;;;;;;;23.47;21.07;;;18.20;99.90;;;;;;5034813;28;20050;-77
2023/06/22 03:44:47;;;;;;;23.17;20.77;;;18.10;99.90;;;;;;5034773;28;20075;-77
2023/06/22 03:47:13;;;;;;;24.80;22.00;;;18.10;99.90;;;;;;5033551;28;20056;-77
2023/06/22 03:49:39;;;;;;;24.73;20.50;;;18.00;99.90;;;;;;5033958;28;20050;-77
2023/06/22 03:52:05;;;;;;;24.53;22.10;;;18.00;99.90;;;;;;5033615;28;20059;-79
2023/06/22 03:54:31;;;;;;;26.43;21.30;;;18.00;99.90;;;;;;5034672;28;20060;-78
2023/06/22 03:56:58;;;;;;;23.40;21.10;;;18.00;99.90;;;;;;5034795;28;20049;-78
2023/06/22 03:59:24;;;;;;;23.40;21.00;;;18.00;99.90;;;;;;5033503;28;20049;-78
2023/06/22 04:01:50;;;;;;;24.33;21.30;;;18.00;99.90;;;;;;5034149;28;20084;-78
2023/06/22 04:04:19;;;;;;;23.30;20.90;;;18.10;99.90;;;;;;5034367;28;20397;-77
2023/06/22 04:06:45;;;;;;;23.37;20.90;;;18.10;99.90;;;;;;5033557;28;20404;-78
2023/06/22 04:09:11;;;;;;;24.10;21.47;;;18.20;99.90;;;;;;5033183;28;20045;-77
2023/06/22 04:11:36;;;;;;;23.67;20.90;;;18.20;99.90;;;;;;5034005;28;20085;-78
2023/06/22 04:14:02;;;;;;;22.90;20.43;;;18.20;99.90;;;;;;5016973;28;20049;-79
2023/06/22 04:16:28;;;;;;;23.07;20.13;;;18.20;99.90;;;;;;5000138;28;20054;-78
2023/06/22 04:18:53;;;;;;;27.53;20.63;;;18.20;99.90;;;;;;5016907;28;20102;-78
2023/06/22 04:21:19;;;;;;;21.97;19.70;;;18.20;99.90;;;;;;5016457;28;20046;-79
2023/06/22 04:23:46;;;;;;;23.30;21.00;;;18.20;99.90;;;;;;5033275;28;20052;-78
2023/06/22 04:26:13;;;;;;;21.80;19.50;;;18.10;99.90;;;;;;5034144;28;20401;-78
2023/06/22 04:28:39;;;;;;;22.87;20.47;;;18.00;99.90;;;;;;5000301;28;20053;-78
2023/06/22 04:31:04;;;;;;;24.33;20.63;;;18.00;99.90;;;;;;5033043;28;20053;-78
2023/06/22 04:33:31;;;;;;;22.63;19.43;;;18.00;99.90;;;;;;5032640;28;20041;-78
2023/06/22 04:35:57;;;;;;;23.33;20.83;;;18.00;99.90;;;;;;5033977;28;20080;-78
2023/06/22 04:38:23;;;;;;;22.97;20.53;;;18.00;99.90;;;;;;5015989;28;20081;-78
2023/06/22 04:40:50;;;;;;;21.53;19.33;;;18.00;99.90;;;;;;5034046;28;20056;-78
2023/06/22 04:43:15;;;;;;;21.03;18.80;;;18.00;99.90;;;;;;5016047;28;20504;-78
2023/06/22 04:45:41;;;;;;;24.87;20.70;;;18.00;99.90;;;;;;5032554;28;20045;-78
2023/06/22 04:48:09;;;;;;;21.00;18.80;;;18.10;99.90;;;;;;5000195;28;20045;-78
2023/06/22 04:50:37;;;;;;;21.77;19.33;;;18.20;99.90;;;;;;5016114;28;20438;-78
2023/06/22 04:53:05;;;;;;;22.73;18.90;;;18.20;99.90;;;;;;5033633;28;20045;-78
2023/06/22 04:55:31;;;;;;;21.33;19.30;;;18.20;99.90;;;;;;5031906;28;20050;-78
2023/06/22 04:58:04;;;;;;;20.53;18.33;;;18.20;99.90;;;;;;5031864;28;20397;-78
2023/06/22 05:00:30;;;;;;;23.40;19.07;;;18.20;99.90;;;;;;5015908;28;20049;-78
2023/06/22 05:02:57;;;;;;;22.90;17.83;;;18.30;99.90;;;;;;5032265;28;20058;-78
2023/06/22 05:05:23;;;;;;;19.13;16.63;;;18.50;99.90;;;;;;5031772;28;20410;-78
2023/06/22 05:07:52;;;;;;;24.97;18.73;;;18.60;99.90;;;;;;5033328;28;20053;-78
2023/06/22 05:10:19;;;;;;;21.70;19.50;;;18.70;99.90;;;;;;5032000;28;20053;-78
2023/06/22 05:12:46;;;;;;;24.77;20.00;;;18.70;99.90;;;;;;5034749;28;20037;-78
2023/06/22 05:15:12;;;;;;;22.73;20.33;;;18.80;99.90;;;;;;5034866;28;20041;-78
2023/06/22 05:17:42;;;;;;;23.80;20.90;;;18.80;99.90;;;;;;5015611;28;20053;-78
2023/06/22 05:20:11;;;;;;;25.27;21.93;;;19.00;99.90;;;;;;5033316;28;20386;-78
2023/06/22 05:22:36;;;;;;;25.53;21.77;;;19.00;99.90;;;;;;5032957;28;20045;-79
2023/06/22 05:25:02;;;;;;;25.17;21.57;;;19.10;99.90;;;;;;5031962;28;20180;-78
2023/06/22 05:27:28;;;;;;;24.57;21.00;;;19.20;99.90;;;;;;5048290;28;20481;-78
2023/06/22 05:29:54;;;;;;;24.87;21.33;;;19.20;99.90;;;;;;5033113;28;20056;-78
2023/06/22 05:32:20;;;;;;;25.33;21.23;;;19.30;99.90;;;;;;5031748;28;20049;-78
2023/06/22 05:34:46;;;;;;;24.03;21.43;;;19.40;99.90;;;;;;5048029;28;20050;-78
2023/06/22 05:37:12;;;;;;;23.60;21.03;;;19.50;99.90;;;;;;5031748;28;20504;-79
2023/06/22 05:39:38;;;;;;;27.43;23.93;;;19.80;99.90;;;;;;5015207;28;20103;-79
2023/06/22 05:42:07;;;;;;;25.93;20.67;;;19.90;99.90;;;;;;5048394;28;20053;-78
2023/06/22 05:44:33;;;;;;;25.77;23.07;;;20.10;99.90;;;;;;5032653;28;20049;-79
2023/06/22 05:46:59;;;;;;;25.87;22.47;;;20.20;99.90;;;;;;5048172;28;20576;-77
2023/06/22 05:49:29;;;;;;;25.57;22.27;;;20.40;99.90;;;;;;5031376;28;20053;-78
2023/06/22 05:51:56;;;;;;;23.83;20.83;;;20.50;99.90;;;;;;5031644;28;20049;-77
2023/06/22 05:54:22;;;;;;;23.00;20.50;;;21.30;99.90;;;;;;5047851;28;20060;-79
2023/06/22 05:56:48;;;;;;;23.30;20.80;;;22.10;99.90;;;;;;5031245;28;20131;-79
2023/06/22 05:59:13;;;;;;;26.40;20.77;;;22.90;99.90;;;;;;5032638;28;20049;-79
2023/06/22 06:01:40;;;;;;;22.97;19.43;;;23.20;99.90;;;;;;5047619;28;20118;-79
2023/06/22 06:04:09;;;;;;;23.10;20.50;;;23.50;99.90;;;;;;5031628;28;20057;-78
2023/06/22 06:06:36;;;;;;;22.97;20.47;;;23.80;99.90;;;;;;5032224;28;20147;-78
2023/06/22 06:09:04;;;;;;;23.30;20.73;;;24.00;99.90;;;;;;5033261;28;20489;-78
2023/06/22 06:11:30;;;;;;;23.50;21.10;;;23.90;99.90;;;;;;5036721;28;20053;-78
2023/06/22 06:13:55;;;;;;;23.63;20.13;;;23.90;99.90;;;;;;5036678;28;20049;-78
2023/06/22 06:16:22;;;;;;;24.77;21.20;;;23.70;99.90;;;;;;5035421;28;20041;-78
2023/06/22 06:18:50;;;;;;;23.17;20.73;;;23.40;99.90;;;;;;5034886;28;20048;-79
2023/06/22 06:21:16;;;;;;;26.83;19.90;;;23.30;99.90;;;;;;5019243;28;20146;-78
2023/06/22 06:23:42;;;;;;;22.60;20.20;;;23.20;99.90;;;;;;5035387;28;20071;-75
2023/06/22 06:26:08;;;;;;;21.77;19.47;;;22.80;99.90;;;;;;5019058;28;20489;-83
2023/06/22 06:28:35;;;;;;;21.70;19.23;;;22.80;99.90;;;;;;5018914;28;20045;-83
2023/06/22 06:31:01;;;;;;;22.10;19.03;;;22.80;99.90;;;;;;5035753;28;20131;-82
2023/06/22 06:33:27;;;;;;;23.40;19.33;;;23.10;99.90;;;;;;5035536;28;20081;-82
2023/06/22 06:35:53;;;;;;;23.23;19.40;;;23.10;99.90;;;;;;5018598;28;20053;-83
2023/06/22 06:38:18;;;;;;;19.77;17.33;;;23.10;99.90;;;;;;5036487;28;20049;-83
2023/06/22 06:40:45;;;;;;;20.50;18.23;;;23.10;99.90;;;;;;5034922;28;20496;-83
2023/06/22 06:43:10;;;;;;;21.33;19.23;;;23.10;99.90;;;;;;5018771;28;20052;-80
2023/06/22 06:45:36;;;;;;;22.50;19.93;;;22.90;99.90;;;;;;5035850;28;20056;-80
2023/06/22 06:48:02;;;;;;;20.60;18.17;;;22.90;99.90;;;;;;5034972;28;20452;-80
2023/06/22 06:50:28;;;;;;;22.27;17.87;;;22.90;99.90;;;;;;5035893;28;20137;-80
2023/06/22 06:52:54;;;;;;;21.50;19.13;;;23.10;99.90;;;;;;5035789;28;20080;-81
2023/06/22 06:55:20;;;;;;;21.33;19.07;;;23.10;99.90;;;;;;5018570;28;20552;-81
2023/06/22 06:57:48;;;;;;;21.17;18.40;;;23.10;99.90;;;;;;5034608;28;20129;-81
2023/06/22 07:00:15;;;;;;;20.83;17.60;;;23.10;99.90;;;;;;5036020;28;20050;-81
2023/06/22 07:02:43;;;;;;;20.10;17.80;;;23.20;99.90;;;;;;5035053;28;20476;-81
2023/06/22 07:05:10;;;;;;;20.63;17.30;;;23.30;99.90;;;;;;5020465;28;20476;-81
2023/06/22 07:07:36;;;;;;;22.63;18.70;;;23.50;99.90;;;;;;5034648;28;20143;-82
2023/06/22 07:10:02;;;;;;;18.33;16.43;;;23.80;99.90;;;;;;5035038;28;20053;-79
2023/06/22 07:12:28;;;;;;;17.30;15.50;;;24.20;99.90;;;;;;5034620;28;20103;-79
2023/06/22 07:15:05;;;;;;;17.20;15.37;;;24.50;99.90;;;;;;5050605;28;20041;-80
2023/06/22 07:17:31;;;;;;;16.60;14.87;;;24.60;99.90;;;;;;5034338;28;20048;-81
2023/06/22 07:19:57;;;;;;;17.87;16.00;;;24.70;99.90;;;;;;5050317;28;20136;-81
2023/06/22 07:22:23;;;;;;;17.53;14.97;;;24.70;99.90;;;;;;5051129;28;20136;-80
2023/06/22 07:24:49;;;;;;;17.50;14.93;;;24.90;99.90;;;;;;5035134;28;20091;-79
2023/06/22 07:27:18;;;;;;;15.67;14.07;;;25.40;99.90;;;;;;5034433;28;20053;-81
2023/06/22 07:29:44;;;;;;;15.90;14.20;;;25.80;99.90;;;;;;5033826;28;20041;-81
2023/06/22 07:32:10;;;;;;;16.77;14.90;;;25.90;99.90;;;;;;5050586;28;20438;-81
2023/06/22 07:34:35;;;;;;;17.30;15.23;;;26.10;99.90;;;;;;5034303;28;20054;-81
2023/06/22 07:37:01;;;;;;;18.33;15.93;;;26.50;99.90;;;;;;5034053;28;20041;-81
2023/06/22 07:39:28;;;;;;;19.87;16.00;;;26.90;99.90;;;;;;5034287;28;20056;-82
2023/06/22 07:41:53;;;;;;;16.97;15.17;;;27.10;99.90;;;;;;5050292;28;20046;-82
2023/06/22 07:44:19;;;;;;;16.60;14.83;;;27.60;99.90;;;;;;5035124;28;20061;-81
2023/06/22 07:46:45;;;;;;;15.25;13.65;;;28.00;99.00;;;;;;5033649;28;20612;-80
2023/06/22 07:49:10;;;;;;;14.85;13.32;;;28.80;98.20;;;;;;5033903;28;20045;-82
2023/06/22 07:51:36;;;;;;;13.95;12.57;;;29.60;92.90;;;;;;5050218;28;20049;-81
2023/06/22 07:54:02;;;;;;;17.13;13.30;;;29.90;90.90;;;;;;5050193;28;20048;-83
2023/06/22 07:56:28;;;;;;;15.65;14.15;;;29.60;81.50;;;;;;5035184;28;20126;-82
2023/06/22 07:58:54;;;;;;;15.00;13.40;;;29.30;81.90;;;;;;5033284;28;20057;-82
2023/06/22 08:01:23;;;;;;;14.95;13.35;;;29.00;86.70;;;;;;5049611;28;20057;-77
2023/06/22 08:03:55;;;;;;;14.32;12.82;;;28.90;87.80;;;;;;5034828;28;20100;-87
2023/06/22 08:06:21;;;;;;;15.40;13.88;;;28.90;87.90;;;;;;5033349;28;20045;-88
2023/06/22 08:08:48;;;;;;;15.75;14.15;;;28.70;88.40;;;;;;5040758;28;20060;-88
2023/06/22 08:11:14;;;;;;;14.30;12.90;;;28.30;89.80;;;;;;5031750;28;20045;-88
2023/06/22 08:13:40;;;;;;;14.55;13.02;;;28.30;91.10;;;;;;5033306;28;20092;-84
2023/06/22 08:16:07;;;;;;;13.93;12.52;;;28.50;90.90;;;;;;5033547;28;20049;-87
2023/06/22 08:18:33;;;;;;;12.93;11.55;;;28.60;86.70;;;;;;5033663;28;20045;-80
2023/06/22 08:20:58;;;;;;;14.23;12.48;;;28.90;85.80;;;;;;5049723;28;20057;-82
2023/06/22 08:23:24;;;;;;;15.63;13.93;;;29.30;84.30;;;;;;5033342;28;20068;-79
2023/06/22 08:25:50;;;;;;;13.48;12.07;;;29.50;80.00;;;;;;5033925;28;20060;-80
2023/06/22 08:28:16;;;;;;;13.77;12.48;;;29.70;74.20;;;;;;5049643;28;20194;-82
2023/06/22 08:30:42;;;;;;;12.45;11.15;;;30.00;72.90;;;;;;5016053;28;20556;-82
2023/06/22 08:33:08;;;;;;;14.23;12.68;;;30.00;69.00;;;;;;5032955;28;20052;-81
2023/06/22 08:35:33;;;;;;;13.77;12.18;;;30.10;68.50;;;;;;5034167;28;20124;-82
2023/06/22 08:37:59;;;;;;;13.95;12.45;;;30.70;69.00;;;;;;5032631;28;20408;-82
2023/06/22 08:40:25;;;;;;;12.38;11.07;;;30.80;66.50;;;;;;5032910;28;20060;-85
2023/06/22 08:42:51;;;;;;;14.40;12.88;;;30.40;63.00;;;;;;5016421;28;20054;-85
2023/06/22 08:45:17;;;;;;;13.02;11.73;;;30.40;63.90;;;;;;5032943;28;20111;-85
2023/06/22 08:47:45;;;;;;;12.85;11.50;;;30.20;65.70;;;;;;5016735;28;20084;-85
2023/06/22 08:50:12;;;;;;;12.57;10.00;;;30.30;68.40;;;;;;5033267;28;20053;-85
2023/06/22 08:52:41;;;;;;;10.65;9.32;;;30.00;64.70;;;;;;5034160;28;20481;-85
2023/06/22 08:55:08;;;;;;;9.88;8.70;;;29.70;63.30;;;;;;5033174;28;20061;-79
2023/06/22 08:57:34;;;;;;;11.75;10.50;;;29.20;63.30;;;;;;5033542;28;20554;-79
2023/06/22 09:00:04;;;;;;;11.98;10.32;;;28.70;65.40;;;;;;5033313;28;20049;-85
2023/06/22 09:02:31;;;;;;;12.50;11.15;;;28.30;68.90;;;;;;5032627;28;20112;-85
2023/06/22 09:05:06;;;;;;;12.85;11.38;;;27.80;72.90;;;;;;5032557;28;20049;-85
2023/06/22 09:07:32;;;;;;;14.65;11.18;;;27.60;80.10;;;;;;5016252;28;20057;-84
2023/06/22 09:09:57;;;;;;;10.55;9.18;;;27.30;79.60;;;;;;5048742;28;20083;-85
2023/06/22 09:12:25;;;;;;;11.93;10.70;;;27.20;83.60;;;;;;5032045;28;20041;-85
2023/06/22 09:14:51;;;;;;;11.43;9.52;;;27.10;86.50;;;;;;5032399;28;20053;-85
2023/06/22 09:17:17;;;;;;;9.50;8.45;;;27.10;88.40;;;;;;5033605;28;20124;-83
2023/06/22 09:19:44;;;;;;;13.05;9.68;;;27.00;88.70;;;;;;5048995;28;20045;-84
2023/06/22 09:22:10;;;;;;;11.05;9.57;;;26.90;90.50;;;;;;5032238;28;20080;-84
2023/06/22 09:24:36;;;;;;;11.13;9.90;;;26.80;90.70;;;;;;5032278;28;20052;-84
2023/06/22 09:27:01;;;;;;;10.32;8.43;;;26.80;90.20;;;;;;5015415;28;20103;-84
2023/06/22 09:29:27;;;;;;;12.00;9.50;;;26.80;91.40;;;;;;5032352;28;20049;-84
2023/06/22 09:31:55;;;;;;;11.57;9.25;;;26.80;90.80;;;;;;5032181;28;20050;-80
2023/06/22 09:34:21;;;;;;;11.95;9.45;;;26.70;91.10;;;;;;5032425;28;20048;-70
2023/06/22 09:36:47;;;;;;;10.80;8.93;;;26.50;91.50;;;;;;5032923;28;20132;-70
2023/06/22 09:39:13;;;;;;;12.80;9.82;;;26.30;92.40;;;;;;5047990;28;20056;-81
2023/06/22 09:41:39;;;;;;;10.77;9.18;;;26.30;92.90;;;;;;5032266;28;20053;-81
2023/06/22 09:44:04;;;;;;;11.63;10.02;;;26.30;93.40;;;;;;5015509;28;20052;-82
2023/06/22 09:46:30;;;;;;;9.73;8.60;;;26.30;92.70;;;;;;5015826;28;20047;-81
2023/06/22 09:48:56;;;;;;;11.67;10.47;;;26.30;93.70;;;;;;5032832;28;20046;-82
2023/06/22 09:51:23;;;;;;;11.57;8.47;;;26.30;93.80;;;;;;5031876;28;20128;-80
2023/06/22 09:53:50;;;;;;;9.87;8.50;;;26.40;94.20;;;;;;5032787;28;20135;-81
2023/06/22 09:56:16;;;;;;;11.27;9.30;;;26.40;93.50;;;;;;5031499;28;20615;-81
2023/06/22 09:58:50;;;;;;;12.47;9.90;;;26.40;93.50;;;;;;5032806;28;20136;-72
2023/06/22 10:01:16;;;;;;;12.93;9.65;;;26.30;92.70;;;;;;5031510;28;20053;-71
2023/06/22 10:03:41;;;;;;;12.27;10.97;;;26.20;93.40;;;;;;5032911;28;20175;-82
2023/06/22 10:06:08;;;;;;;13.40;9.47;;;26.20;93.30;;;;;;5031436;28;20053;-82
2023/06/22 10:08:35;;;;;;;13.43;10.40;;;26.00;93.40;;;;;;5032613;28;20142;-81
2023/06/22 10:11:01;;;;;;;12.20;9.87;;;25.90;93.70;;;;;;5048018;28;20056;-81
2023/06/22 10:13:27;;;;;;;11.53;9.33;;;25.90;94.50;;;;;;5032639;28;20053;-81
2023/06/22 10:15:53;;;;;;;10.83;8.30;;;25.90;95.20;;;;;;5031693;28;20560;-80
2023/06/22 10:18:19;;;;;;;9.03;7.23;;;25.90;95.60;;;;;;5014658;28;20050;-81
2023/06/22 10:20:48;;;;;;;9.77;8.10;;;26.00;95.00;;;;;;5048367;28;20052;-80
2023/06/22 10:23:13;;;;;;;12.27;8.47;;;25.90;94.80;;;;;;5047469;28;20052;-81
2023/06/22 10:25:39;;;;;;;8.97;7.73;;;25.90;94.70;;;;;;5031646;28;20053;-83
2023/06/22 10:28:05;;;;;;;8.00;6.10;;;25.90;93.00;;;;;;5031439;28;20049;-71
2023/06/22 10:30:31;;;;;;;12.07;7.73;;;25.90;91.70;;;;;;5032464;28;20555;-70
2023/06/22 10:32:56;;;;;;;10.23;7.80;;;25.80;92.20;;;;;;5032293;28;20068;-70
2023/06/22 10:35:22;;;;;;;10.23;7.43;;;25.80;93.10;;;;;;5031187;28;20053;-69
2023/06/22 10:37:48;;;;;;;11.53;8.13;;;25.90;93.50;;;;;;5032344;28;20133;-82
2023/06/22 10:40:15;;;;;;;8.87;7.53;;;25.90;92.50;;;;;;5048002;28;20057;-84
2023/06/22 10:42:41;;;;;;;10.47;8.63;;;25.90;92.80;;;;;;5033694;28;20098;-83
2023/06/22 10:45:08;;;;;;;9.53;8.00;;;25.90;92.70;;;;;;5031537;28;20145;-83
2023/06/22 10:47:34;;;;;;;9.27;6.63;;;25.80;92.20;;;;;;5048477;28;20056;-85
2023/06/22 10:50:00;;;;;;;9.43;7.07;;;25.80;92.60;;;;;;5031098;28;20057;-84
2023/06/22 10:52:25;;;;;;;8.20;6.50;;;25.80;91.90;;;;;;5031402;28;20045;-84
2023/06/22 10:54:52;;;;;;;8.43;5.97;;;25.80;91.70;;;;;;5032932;28;20071;-82
2023/06/22 10:57:18;;;;;;;9.33;5.83;;;25.90;91.00;;;;;;5034816;28;20042;-81
2023/06/22 10:59:44;;;;;;;8.23;5.40;;;26.00;90.00;;;;;;5036127;28;20049;-82
2023/06/22 11:02:10;;;;;;;7.77;4.77;;;25.90;83.80;;;;;;5017755;28;20057;-77
2023/06/22 11:04:36;;;;;;;8.23;5.17;;;25.80;83.30;;;;;;5034892;28;20091;-80
2023/06/22 11:07:01;;;;;;;7.90;4.93;;;25.90;86.00;;;;;;5017920;28;20107;-72
2023/06/22 11:09:27;;;;;;;8.23;5.47;;;26.00;86.10;;;;;;5036053;28;20046;-77
2023/06/22 11:11:53;;;;;;;10.97;4.63;;;26.00;85.10;;;;;;5035026;28;20140;-80
2023/06/22 11:14:19;;;;;;;8.30;5.30;;;26.00;82.20;;;;;;5034691;28;20075;-81
2023/06/22 11:16:46;;;;;;;6.43;4.20;;;26.00;81.80;;;;;;5035826;28;20412;-81
2023/06/22 11:19:12;;;;;;;7.33;4.80;;;26.00;75.80;;;;;;5034389;28;20081;-81
2023/06/22 11:21:38;;;;;;;10.67;5.60;;;26.10;80.90;;;;;;5051180;28;20152;-81
2023/06/22 11:24:04;;;;;;;8.20;5.60;;;26.20;81.80;;;;;;5035410;28;20556;-82
2023/06/22 11:26:31;;;;;;;8.07;5.17;;;26.10;81.50;;;;;;5034408;28;20388;-81
2023/06/22 11:28:58;;;;;;;8.30;5.83;;;26.30;82.80;;;;;;5034238;28;20046;-80
2023/06/22 11:31:24;;;;;;;9.97;4.77;;;26.30;79.30;;;;;;5034287;28;20087;-81
2023/06/22 11:33:49;;;;;;;5.63;4.27;;;26.30;78.50;;;;;;5034233;28;20516;-78
2023/06/22 11:36:15;;;;;;;7.30;3.63;;;26.40;76.30;;;;;;5050133;28;20477;-78
2023/06/22 11:38:42;;;;;;;6.40;4.83;;;26.50;68.00;;;;;;5018025;28;20085;-79
2023/06/22 11:41:09;;;;;;;8.93;6.40;;;26.40;69.60;;;;;;5033918;28;20042;-80
2023/06/22 11:43:35;;;;;;;7.50;5.10;;;26.40;72.70;;;;;;5035209;28;20128;-79
2023/06/22 11:46:03;;;;;;;11.00;5.00;;;26.30;75.50;;;;;;5017420;28;20042;-79
2023/06/22 11:48:29;;;;;;;6.90;4.60;;;26.30;76.10;;;;;;5034788;28;20037;-79
2023/06/22 11:50:55;;;;;;;7.47;4.30;;;26.40;76.10;;;;;;5033380;28;20044;-77
2023/06/22 11:53:22;;;;;;;6.87;4.63;;;26.40;75.30;;;;;;5034818;28;20041;-77
2023/06/22 11:55:49;;;;;;;7.90;5.73;;;26.40;74.60;;;;;;5034024;28;20083;-79
2023/06/22 11:58:14;;;;;;;12.53;7.00;;;26.40;74.70;;;;;;5017088;28;20041;-80
2023/06/22 12:00:41;;;;;;;8.20;5.40;;;26.40;76.70;;;;;;5050244;28;20046;-79
2023/06/22 12:03:07;;;;;;;6.57;4.17;;;26.30;77.00;;;;;;5034324;28;20069;-80
2023/06/22 12:05:33;;;;;;;8.33;4.57;;;26.40;74.20;;;;;;5032852;28;20119;-81
2023/06/22 12:07:59;;;;;;;9.07;4.83;;;26.30;70.90;;;;;;5033563;28;20045;-79
2023/06/22 12:10:30;;;;;;;11.93;5.40;;;26.20;70.80;;;;;;5033344;28;20388;-80
2023/06/22 12:13:00;;;;;;;8.10;5.27;;;26.20;72.30;;;;;;5050231;28;20085;-78
2023/06/22 12:15:26;;;;;;;8.47;5.37;;;26.20;73.80;;;;;;5033227;28;20485;-79
2023/06/22 12:17:52;;;;;;;7.20;5.00;;;26.20;75.20;;;;;;5049622;28;20045;-79
2023/06/22 12:20:18;;;;;;;7.20;5.37;;;26.20;75.10;;;;;;5034418;28;20045;-80
2023/06/22 12:22:44;;;;;;;7.23;4.90;;;26.10;76.50;;;;;;5033442;28;20050;-80
2023/06/22 12:25:11;;;;;;;12.27;5.60;;;26.10;77.90;;;;;;5049908;28;20157;-79
2023/06/22 12:27:37;;;;;;;8.20;5.70;;;26.10;78.10;;;;;;5033436;28;20111;-78
2023/06/22 12:30:04;;;;;;;7.97;6.83;;;26.20;78.90;;;;;;5034567;28;20485;-81